Time;durP1;ratioP1;P1;durP2;ratioP2;P2;SDS_P1;SDS_P2;PMS_P1;PMS_P2;Temp;Humidity;BMP_temperature;BMP_pressure;BME280_temperature;BME280_humidity;BME280_pressure;Samples;Min_cycle;Max_cycle;Signal;HPM_P1;HPM_P2
2023/03/18 00:01:15;;;;;;;;;1.00;0.00;;;;;14.40;64.67;99788.84;5007733;28;46219;-74
2023/03/18 00:03:41;;;;;;;;;1.00;0.00;;;;;14.45;64.37;99791.50;5006315;28;45484;-75
2023/03/18 00:06:10;;;;;;;;;1.00;1.00;;;;;14.45;63.93;99786.25;5005867;28;45541;-78
2023/03/18 00:08:38;;;;;;;;;0.25;0.00;;;;;14.47;63.94;99795.00;5010232;28;45403;-69
2023/03/18 00:11:04;;;;;;;;;1.00;1.00;;;;;14.40;62.90;99783.59;5026955;28;45987;-69
2023/03/18 00:13:33;;;;;;;;;0.33;0.33;;;;;14.47;61.90;99795.88;5030227;28;44746;-70
2023/03/18 00:16:01;;;;;;;;;1.00;0.00;;;;;14.47;61.50;99795.88;5019490;28;45373;-70
2023/03/18 00:18:27;;;;;;;;;1.00;1.00;;;;;14.46;61.80;99795.88;5030985;28;44811;-69
2023/03/18 00:20:53;;;;;;;;;1.00;0.00;;;;;14.41;61.96;99792.38;5028735;28;44945;-70
2023/03/18 00:23:21;;;;;;;;;0.00;0.00;;;;;14.29;62.63;99782.69;5016270;28;45437;-71
2023/03/18 00:25:50;;;;;;;;;0.00;0.00;;;;;14.30;63.06;99806.34;5015540;28;45355;-71
2023/03/18 00:28:17;;;;;;;;;0.00;0.00;;;;;14.24;63.05;99806.31;5013416;28;45263;-70
2023/03/18 00:30:48;;;;;;;;;1.00;1.00;;;;;14.19;63.65;99815.06;5011345;28;45851;-80
2023/03/18 00:33:15;;;;;;;;;0.00;0.00;;;;;14.13;64.05;99822.03;4998471;28;45377;-78
2023/03/18 00:35:41;;;;;;;;;0.00;0.00;;;;;14.04;64.11;99816.75;4998186;28;45312;-80
2023/03/18 00:38:08;;;;;;;;;0.00;0.00;;;;;14.03;63.82;99820.25;4996881;28;45340;-81
2023/03/18 00:41:00;;;;;;;;;0.00;0.00;;;;;14.00;64.06;99814.09;4997501;28;46115;-78
2023/03/18 00:43:28;;;;;;;;;0.00;0.00;;;;;14.00;63.53;99798.34;4997795;28;45316;-79
2023/03/18 00:45:57;;;;;;;;;1.00;0.00;;;;;14.01;63.52;99806.25;4997620;28;45313;-77
2023/03/18 00:48:23;;;;;;;;;0.00;0.00;;;;;14.02;63.43;99801.84;4997982;28;45402;-80
2023/03/18 00:50:50;;;;;;;;;0.00;0.00;;;;;14.07;62.49;99800.16;4985373;28;45549;-78
2023/03/18 00:53:16;;;;;;;;;0.00;0.00;;;;;14.10;61.85;99789.63;4977911;28;45354;-81
2023/03/18 00:55:42;;;;;;;;;0.00;0.00;;;;;14.18;61.01;99792.28;4978088;28;45440;-80
2023/03/18 00:58:09;;;;;;;;;0.00;0.00;;;;;14.21;61.25;99784.44;4978070;28;45278;-82
2023/03/18 01:00:37;;;;;;;;;0.00;0.00;;;;;14.28;60.50;99788.81;4977498;28;45953;-81
2023/03/18 01:03:03;;;;;;;;;0.00;0.00;;;;;14.26;60.20;99774.78;4977571;28;45320;-81
2023/03/18 01:05:31;;;;;;;;;0.00;0.00;;;;;14.29;60.17;99770.44;4977561;28;45531;-81
2023/03/18 01:07:57;;;;;;;;;0.00;0.00;;;;;14.36;59.21;99765.19;4977100;28;45518;-81
2023/03/18 01:10:23;;;;;;;;;0.00;0.00;;;;;14.45;58.03;99771.34;4977548;28;45968;-79
2023/03/18 01:12:49;;;;;;;;;0.67;0.00;;;;;14.52;57.17;99769.59;4977949;28;45466;-82
2023/03/18 01:15:17;;;;;;;;;0.00;0.00;;;;;14.59;56.80;99762.63;4977934;28;45485;-80
2023/03/18 01:17:44;;;;;;;;;0.00;0.00;;;;;14.63;56.33;99765.25;4977990;28;45499;-80
2023/03/18 01:20:11;;;;;;;;;0.00;0.00;;;;;14.59;55.81;99753.00;4982587;28;45477;-81
2023/03/18 01:22:40;;;;;;;;;1.00;1.00;;;;;14.65;55.90;99753.00;4995786;28;45313;-81
2023/03/18 01:25:07;;;;;;;;;0.67;0.33;;;;;14.73;56.19;99768.78;4996804;28;45498;-81
2023/03/18 01:27:33;;;;;;;;;0.33;0.33;;;;;14.73;55.51;99755.63;4997001;28;45396;-79
2023/03/18 01:29:59;;;;;;;;;0.00;0.00;;;;;14.80;55.48;99769.66;5000114;28;46227;-72
2023/03/18 01:32:25;;;;;;;;;1.00;1.00;;;;;14.76;56.11;99752.13;4998047;28;45378;-80
2023/03/18 01:34:51;;;;;;;;;3.25;3.00;;;;;14.79;55.26;99753.00;4995801;28;45453;-71
2023/03/18 01:37:18;;;;;;;;;13.50;12.25;;;;;14.84;55.66;99763.50;4999712;28;45240;-75
2023/03/18 01:39:44;;;;;;;;;6.00;5.00;;;;;14.82;56.16;99766.16;4998264;28;45439;-77
2023/03/18 01:42:10;;;;;;;;;1.33;1.00;;;;;14.79;57.47;99771.41;4996958;28;45348;-80
2023/03/18 01:44:36;;;;;;;;;0.00;0.00;;;;;14.74;57.83;99767.03;4997224;28;45493;-77
2023/03/18 01:47:02;;;;;;;;;0.00;0.00;;;;;14.57;56.76;99741.59;4996881;28;45474;-79
2023/03/18 01:49:52;;;;;;;;;0.33;0.00;;;;;14.71;55.52;99760.88;4996738;28;45327;-74
2023/03/18 01:52:26;;;;;;;;;0.00;0.00;;;;;14.71;54.96;99762.66;4996380;28;45352;-75
2023/03/18 01:55:00;;;;;;;;;0.00;0.00;;;;;14.61;56.00;99761.75;4996984;28;45477;-72
2023/03/18 01:57:26;;;;;;;;;0.00;0.00;;;;;14.47;57.29;99748.56;4997137;28;45288;-72
2023/03/18 01:59:54;;;;;;;;;0.00;0.00;;;;;14.41;57.39;99747.69;4996845;28;45442;-72
2023/03/18 02:02:20;;;;;;;;;0.00;0.00;;;;;14.36;57.14;99752.06;4997088;28;45479;-72
2023/03/18 02:04:51;;;;;;;;;0.00;0.00;;;;;14.38;57.08;99751.16;4996285;28;45480;-73
2023/03/18 02:07:20;;;;;;;;;0.00;0.00;;;;;14.38;56.99;99752.94;4996874;28;45269;-74
2023/03/18 02:09:47;;;;;;;;;0.00;0.00;;;;;14.36;56.24;99734.53;4996649;28;46119;-75
2023/03/18 02:12:17;;;;;;;;;0.00;0.00;;;;;14.43;55.69;99735.44;4996615;28;45467;-72
2023/03/18 02:14:43;;;;;;;;;0.00;0.00;;;;;14.35;55.31;99722.28;4996848;28;45304;-74
2023/03/18 02:17:15;;;;;;;;;0.00;0.00;;;;;14.40;55.12;99736.28;4996884;28;45363;-72
2023/03/18 02:19:59;;;;;;;;;0.00;0.00;;;;;14.37;55.15;99728.41;4998764;28;45312;-72
2023/03/18 02:22:32;;;;;;;;;0.00;0.00;;;;;14.33;55.21;99737.16;4998357;28;45360;-75
2023/03/18 02:25:07;;;;;;;;;0.00;0.00;;;;;14.33;55.11;99739.78;4998344;28;46166;-71
2023/03/18 02:27:36;;;;;;;;;0.00;0.00;;;;;14.36;55.15;99738.91;4999831;28;45516;-77
2023/03/18 02:30:08;;;;;;;;;0.00;0.00;;;;;14.38;55.07;99738.03;4999532;28;45340;-72
2023/03/18 02:32:35;;;;;;;;;0.00;0.00;;;;;14.40;54.75;99731.03;4999211;28;45315;-76
2023/03/18 02:35:05;;;;;;;;;0.00;0.00;;;;;14.43;54.62;99736.31;4999556;28;45312;-80
2023/03/18 02:37:31;;;;;;;;;0.00;0.00;;;;;14.45;54.91;99731.94;5000050;28;45225;-79
2023/03/18 02:40:21;;;;;;;;;0.00;0.00;;;;;14.48;54.63;99737.19;4999303;28;46102;-74
2023/03/18 02:42:47;;;;;;;;;0.00;0.00;;;;;14.50;54.12;99735.44;4999740;28;45307;-73
2023/03/18 02:45:22;;;;;;;;;0.00;0.00;;;;;14.52;54.12;99732.78;4999493;28;45593;-74
2023/03/18 02:47:50;;;;;;;;;0.00;0.00;;;;;14.39;53.98;99710.91;4999736;28;45471;-77
2023/03/18 02:50:16;;;;;;;;;0.00;0.00;;;;;14.48;54.19;99731.94;4999407;28;46110;-78
2023/03/18 02:52:42;;;;;;;;;0.00;0.00;;;;;14.47;53.79;99732.81;4999478;28;45477;-74
2023/03/18 02:55:08;;;;;;;;;0.00;0.00;;;;;14.47;54.06;99734.56;4998245;28;45445;-76
2023/03/18 02:57:34;;;;;;;;;0.00;0.00;;;;;14.44;53.77;99730.19;4999643;28;45305;-74
2023/03/18 03:00:00;;;;;;;;;0.00;0.00;;;;;14.47;53.69;99738.06;4999122;28;46197;-79
2023/03/18 03:02:26;;;;;;;;;0.00;0.00;;;;;14.45;53.39;99734.56;4998953;28;45523;-75
2023/03/18 03:04:51;;;;;;;;;0.00;0.00;;;;;14.45;53.04;99737.19;4999338;28;45401;-77
2023/03/18 03:07:16;;;;;;;;;0.00;0.00;;;;;14.44;52.97;99734.53;4999335;28;45391;-80
2023/03/18 03:09:42;;;;;;;;;0.00;0.00;;;;;14.46;52.96;99736.31;4998897;28;45410;-80
2023/03/18 03:12:08;;;;;;;;;0.00;0.00;;;;;14.50;52.36;99739.81;4999071;28;45379;-77
2023/03/18 03:14:33;;;;;;;;;0.00;0.00;;;;;14.48;52.06;99731.03;4999239;28;45473;-74
2023/03/18 03:16:59;;;;;;;;;0.00;0.00;;;;;14.53;51.96;99743.31;4999083;28;45501;-74
2023/03/18 03:19:24;;;;;;;;;0.67;0.00;;;;;14.48;51.84;99736.28;4997787;28;47485;-76
2023/03/18 03:21:50;;;;;;;;;0.00;0.00;;;;;14.51;51.92;99749.44;4998894;28;45497;-77
2023/03/18 03:24:15;;;;;;;;;0.00;0.00;;;;;14.51;51.57;99749.44;4999038;28;45465;-79
2023/03/18 03:26:41;;;;;;;;;0.00;0.00;;;;;14.45;51.49;99738.94;4999054;28;45489;-72
2023/03/18 03:29:07;;;;;;;;;0.00;0.00;;;;;14.56;51.24;99757.34;4998268;28;45953;-77
2023/03/18 03:31:33;;;;;;;;;0.00;0.00;;;;;14.48;51.09;99738.94;4998169;28;45512;-79
2023/03/18 03:33:58;;;;;;;;;0.00;0.00;;;;;14.60;51.33;99757.34;4998978;28;45401;-77
2023/03/18 03:36:24;;;;;;;;;0.00;0.00;;;;;14.65;50.92;99763.50;4998860;28;45371;-77
2023/03/18 03:38:49;;;;;;;;;0.00;0.00;;;;;14.67;50.22;99761.75;4998618;28;46183;-77
2023/03/18 03:41:15;;;;;;;;;0.00;0.00;;;;;14.62;50.39;99744.22;4998485;28;45434;-73
2023/03/18 03:43:42;;;;;;;;;0.00;0.00;;;;;14.63;50.01;99748.63;4998633;28;45537;-74
2023/03/18 03:46:08;;;;;;;;;0.00;0.00;;;;;14.59;50.73;99747.75;4998578;28;45470;-77
2023/03/18 03:48:33;;;;;;;;;0.00;0.00;;;;;14.53;50.68;99751.19;4998336;28;45518;-77
2023/03/18 03:50:59;;;;;;;;;0.00;0.00;;;;;14.54;50.91;99757.31;4998317;28;45438;-77
2023/03/18 03:53:25;;;;;;;;;0.00;0.00;;;;;14.35;50.75;99731.91;4998899;28;45489;-73
2023/03/18 03:55:52;;;;;;;;;0.00;0.00;;;;;14.45;51.14;99762.59;4998600;28;45375;-77
2023/03/18 03:58:18;;;;;;;;;0.00;0.00;;;;;14.45;50.55;99752.06;4998233;28;45293;-74
2023/03/18 04:00:43;;;;;;;;;0.00;0.00;;;;;14.41;50.63;99758.19;4996816;28;45562;-76
2023/03/18 04:03:09;;;;;;;;;0.00;0.00;;;;;14.40;50.62;99766.94;4998482;28;45304;-77
2023/03/18 04:05:36;;;;;;;;;0.00;0.00;;;;;14.36;50.62;99771.31;4998101;28;45446;-77
2023/03/18 04:08:02;;;;;;;;;0.00;0.00;;;;;14.30;51.17;99780.09;4997907;28;45972;-72
2023/03/18 04:10:28;;;;;;;;;0.00;0.00;;;;;14.26;51.85;99786.16;4998474;28;45482;-79
2023/03/18 04:12:54;;;;;;;;;0.00;0.00;;;;;14.14;51.67;99780.88;4998423;28;45466;-75
2023/03/18 04:15:20;;;;;;;;;0.00;0.00;;;;;14.13;51.90;99790.53;4998371;28;45383;-76
2023/03/18 04:17:49;;;;;;;;;0.00;0.00;;;;;14.03;51.73;99778.25;4998001;28;45484;-74
2023/03/18 04:20:16;;;;;;;;;0.00;0.00;;;;;14.03;52.18;99790.50;4996775;28;45470;-78
2023/03/18 04:22:42;;;;;;;;;0.00;0.00;;;;;14.01;52.01;99794.88;4998175;28;45342;-79
2023/03/18 04:25:09;;;;;;;;;0.00;0.00;;;;;13.91;52.31;99791.31;4998134;28;45311;-79
2023/03/18 04:27:36;;;;;;;;;0.00;0.00;;;;;13.83;52.11;99780.78;4997593;28;45879;-81
2023/03/18 04:30:02;;;;;;;;;0.00;0.00;;;;;13.86;52.46;99800.91;4997541;28;45252;-78
2023/03/18 04:32:28;;;;;;;;;0.00;0.00;;;;;13.78;52.92;99800.88;4997835;28;45533;-77
2023/03/18 04:34:54;;;;;;;;;0.00;0.00;;;;;13.63;53.26;99788.56;4998823;28;45470;-77
2023/03/18 04:37:19;;;;;;;;;0.00;0.00;;;;;13.65;53.74;99802.56;4998363;28;45404;-71
2023/03/18 04:39:48;;;;;;;;;0.00;0.00;;;;;13.57;53.67;99796.41;4997878;28;45251;-80
2023/03/18 04:42:15;;;;;;;;;0.00;0.00;;;;;13.50;55.41;99799.84;4996819;28;45528;-74
2023/03/18 04:44:40;;;;;;;;;0.00;0.00;;;;;13.38;56.28;99798.03;4997891;28;45331;-75
2023/03/18 04:47:06;;;;;;;;;0.00;0.00;;;;;13.34;56.07;99796.25;4997434;28;45478;-77
2023/03/18 04:49:33;;;;;;;;;0.00;0.00;;;;;13.22;56.49;99804.00;4997721;28;45355;-77
2023/03/18 04:51:59;;;;;;;;;0.00;0.00;;;;;13.14;56.74;99809.19;4998039;28;45464;-74
2023/03/18 04:54:25;;;;;;;;;0.00;0.00;;;;;13.10;56.63;99828.38;4997844;28;45443;-75
2023/03/18 04:56:50;;;;;;;;;0.00;0.00;;;;;13.07;56.00;99826.63;4997551;28;45445;-74
2023/03/18 04:59:17;;;;;;;;;0.00;0.00;;;;;13.06;55.67;99817.00;4997340;28;45545;-74
2023/03/18 05:01:42;;;;;;;;;0.00;0.00;;;;;13.05;56.14;99827.47;4997138;28;45525;-74
2023/03/18 05:04:09;;;;;;;;;0.00;0.00;;;;;13.00;56.46;99827.44;4997615;28;45335;-76
2023/03/18 05:06:36;;;;;;;;;0.00;0.00;;;;;12.98;56.83;99830.91;4997205;28;46094;-75
2023/03/18 05:09:04;;;;;;;;;0.00;0.00;;;;;12.89;56.99;99819.50;4997810;28;45360;-78
2023/03/18 05:11:30;;;;;;;;;0.00;0.00;;;;;12.93;56.97;99830.84;4997545;28;45400;-74
2023/03/18 05:13:56;;;;;;;;;0.00;0.00;;;;;12.86;57.10;99826.44;4997430;28;45398;-71
2023/03/18 05:16:23;;;;;;;;;0.00;0.00;;;;;12.89;55.57;99829.06;4997210;28;46166;-77
2023/03/18 05:18:49;;;;;;;;;0.00;0.00;;;;;12.91;54.95;99841.34;4996052;28;45325;-74
2023/03/18 05:21:15;;;;;;;;;0.00;0.00;;;;;12.88;54.96;99837.81;4997412;28;45279;-74
2023/03/18 05:23:41;;;;;;;;;0.00;0.00;;;;;12.88;54.78;99829.94;4997460;28;45304;-76
2023/03/18 05:26:08;;;;;;;;;0.00;0.00;;;;;12.71;57.90;99835.03;4996801;28;46162;-79
2023/03/18 05:28:34;;;;;;;;;0.00;0.00;;;;;12.75;56.43;99836.81;4996854;28;45399;-72
2023/03/18 05:31:00;;;;;;;;;0.00;0.00;;;;;12.71;56.45;99832.41;4996941;28;45433;-77
2023/03/18 05:33:26;;;;;;;;;0.00;0.00;;;;;12.73;56.34;99838.53;4995976;28;45387;-76
2023/03/18 05:35:51;;;;;;;;;0.00;0.00;;;;;12.73;56.04;99838.53;4996807;28;46024;-76
2023/03/18 05:38:17;;;;;;;;;0.00;0.00;;;;;12.72;55.63;99842.91;4996956;28;45268;-78
2023/03/18 05:40:43;;;;;;;;;0.00;0.00;;;;;12.75;55.11;99836.81;4996817;28;45472;-76
2023/03/18 05:43:09;;;;;;;;;0.00;0.00;;;;;12.73;54.82;99822.81;4996974;28;45418;-79
2023/03/18 05:45:35;;;;;;;;;0.25;0.00;;;;;12.73;54.46;99833.28;4997041;28;46153;-72
2023/03/18 05:48:00;;;;;;;;;0.00;0.00;;;;;12.71;54.38;99837.63;4997187;28;45216;-77
2023/03/18 05:50:32;;;;;;;;;0.00;0.00;;;;;12.71;53.87;99845.50;4995485;28;45284;-72
2023/03/18 05:52:58;;;;;;;;;0.00;0.00;;;;;12.68;53.90;99830.63;4998383;28;45336;-76
2023/03/18 05:55:23;;;;;;;;;0.00;0.00;;;;;12.74;53.70;99837.69;5000266;28;46026;-77
2023/03/18 05:57:49;;;;;;;;;0.00;0.00;;;;;12.67;53.82;99822.75;5000188;28;45473;-70
2023/03/18 06:00:17;;;;;;;;;0.00;0.00;;;;;12.61;54.37;99817.44;4998615;28;45271;-71
2023/03/18 06:02:43;;;;;;;;;0.00;0.00;;;;;12.65;54.34;99840.19;5000505;28;45399;-76
2023/03/18 06:05:09;;;;;;;;;0.00;0.00;;;;;12.63;54.35;99842.78;4999844;28;46199;-74
2023/03/18 06:07:35;;;;;;;;;0.00;0.00;;;;;12.66;54.48;99847.22;4999809;28;45431;-76
2023/03/18 06:10:01;;;;;;;;;0.00;0.00;;;;;12.63;54.43;99848.03;4994118;28;45788;-74
2023/03/18 06:12:27;;;;;;;;;0.00;0.00;;;;;12.64;54.27;99847.19;5003910;28;45433;-75
2023/03/18 06:14:53;;;;;;;;;0.00;0.00;;;;;12.61;54.32;99848.91;5007159;28;45482;-74
2023/03/18 06:17:20;;;;;;;;;0.00;0.00;;;;;12.62;54.43;99853.28;5006923;28;45407;-77
2023/03/18 06:19:47;;;;;;;;;0.00;0.00;;;;;12.63;54.39;99850.66;5007799;28;45401;-76
2023/03/18 06:22:15;;;;;;;;;0.00;0.00;;;;;12.63;54.61;99847.16;5010067;28;45233;-73
2023/03/18 06:24:41;;;;;;;;;0.00;0.00;;;;;12.64;54.64;99856.81;5008064;28;45591;-72
2023/03/18 06:27:07;;;;;;;;;0.75;0.00;;;;;12.66;54.39;99860.31;5007454;28;45644;-71
2023/03/18 06:29:34;;;;;;;;;0.00;0.00;;;;;12.59;54.41;99854.09;5009914;28;45524;-80
2023/03/18 06:31:59;;;;;;;;;0.00;0.00;;;;;12.61;54.26;99852.38;5007770;28;45368;-75
2023/03/18 06:34:25;;;;;;;;;0.00;0.00;;;;;12.67;53.95;99859.44;5007356;28;46258;-70
2023/03/18 06:36:51;;;;;;;;;0.00;0.00;;;;;12.73;53.57;99873.50;5006945;28;45335;-77
2023/03/18 06:39:18;;;;;;;;;0.00;0.00;;;;;12.71;53.44;99870.00;5009144;28;45332;-71
2023/03/18 06:41:44;;;;;;;;;0.00;0.00;;;;;12.71;53.64;99855.97;5007440;28;45348;-77
2023/03/18 06:44:12;;;;;;;;;0.00;0.00;;;;;12.81;53.57;99870.97;5007077;28;45391;-76
2023/03/18 06:46:38;;;;;;;;;0.75;0.00;;;;;12.85;53.56;99879.72;5008975;28;45931;-72
2023/03/18 06:49:04;;;;;;;;;0.00;0.00;;;;;12.89;53.15;99877.16;4998173;28;46146;-78
2023/03/18 06:51:32;;;;;;;;;4.25;3.25;;;;;12.96;53.25;99877.22;5007450;28;45492;-68
2023/03/18 06:53:58;;;;;;;;;6.00;4.50;;;;;12.93;52.95;99865.84;5007179;28;47940;-79
2023/03/18 06:56:24;;;;;;;;;6.75;6.00;;;;;13.08;52.34;99879.94;5005778;28;45518;-80
2023/03/18 06:58:50;;;;;;;;;10.75;9.25;;;;;13.10;52.24;99880.84;5014179;28;45583;-81
2023/03/18 07:01:16;;;;;;;;;6.00;5.25;;;;;13.10;51.94;99863.34;5008658;28;45445;-77
2023/03/18 07:03:42;;;;;;;;;5.50;5.00;;;;;13.14;52.20;99872.13;5006472;28;46035;-76
2023/03/18 07:06:10;;;;;;;;;2.00;2.00;;;;;13.20;52.03;99866.06;5006978;28;45504;-79
2023/03/18 07:08:37;;;;;;;;;1.00;1.00;;;;;13.30;51.91;99871.41;5002516;28;46147;-79
2023/03/18 07:11:03;;;;;;;;;0.00;0.00;;;;;13.33;51.60;99874.06;5008351;28;45504;-80
2023/03/18 07:13:29;;;;;;;;;0.00;0.00;;;;;13.36;50.94;99856.59;5006414;28;45926;-80
2023/03/18 07:15:59;;;;;;;;;0.00;0.00;;;;;13.61;50.25;99881.25;5007663;28;45562;-79
2023/03/18 07:18:25;;;;;;;;;0.00;0.00;;;;;16.09;47.83;99878.31;5007890;28;45509;-80
2023/03/18 07:20:51;;;;;;;;;0.00;0.00;;;;;19.02;40.36;99873.03;5006335;28;45609;-80
2023/03/18 07:23:17;;;;;;;;;0.00;0.00;;;;;21.22;37.31;99861.63;5007970;28;46402;-80
2023/03/18 07:25:43;;;;;;;;;0.00;0.00;;;;;22.97;33.99;99869.16;4998859;28;45400;-81
2023/03/18 07:28:09;;;;;;;;;0.00;0.00;;;;;24.08;32.47;99875.28;5006779;28;45448;-81
2023/03/18 07:30:34;;;;;;;;;0.00;0.00;;;;;24.77;31.17;99878.00;5008957;28;45435;-79
2023/03/18 07:33:00;;;;;;;;;0.67;0.67;;;;;25.49;30.24;99871.59;5004074;28;45569;-78
2023/03/18 07:35:27;;;;;;;;;2.00;1.00;;;;;26.61;28.53;99863.94;5008942;28;45310;-82
2023/03/18 07:37:52;;;;;;;;;0.00;0.00;;;;;27.64;28.33;99876.81;5001699;28;45518;-82
2023/03/18 07:40:18;;;;;;;;;0.00;0.00;;;;;28.43;26.36;99878.91;5004665;28;45523;-79
2023/03/18 07:42:43;;;;;;;;;0.00;0.00;;;;;29.09;25.70;99873.44;5011444;28;46069;-80
2023/03/18 07:45:09;;;;;;;;;0.00;0.00;;;;;29.62;25.07;99865.84;5010293;28;45375;-76
2023/03/18 07:47:36;;;;;;;;;0.00;0.00;;;;;30.19;23.55;99875.88;5024386;28;45253;-81
2023/03/18 07:50:01;;;;;;;;;0.00;0.00;;;;;30.86;22.91;99870.75;5016548;28;45458;-79
2023/03/18 07:52:28;;;;;;;;;0.00;0.00;;;;;31.08;23.01;99872.94;5010201;28;46058;-82
2023/03/18 07:54:53;;;;;;;;;0.00;0.00;;;;;31.31;21.31;99886.72;5007840;28;45479;-77
2023/03/18 07:57:19;;;;;;;;;0.00;0.00;;;;;31.90;21.35;99895.31;5008942;28;45330;-78
2023/03/18 07:59:45;;;;;;;;;0.00;0.00;;;;;31.76;20.67;99889.16;5007830;28;45414;-90
2023/03/18 08:02:13;;;;;;;;;0.33;0.00;;;;;32.01;21.97;99896.44;5008185;28;45498;-81
2023/03/18 08:04:39;;;;;;;;;0.00;0.00;;;;;32.41;19.58;99890.91;4999122;28;45539;-77
2023/03/18 08:07:05;;;;;;;;;0.00;0.00;;;;;32.63;19.49;99901.94;5010973;28;45416;-75
2023/03/18 08:09:31;;;;;;;;;0.00;0.00;;;;;32.64;19.50;99906.38;4998007;28;45287;-74
2023/03/18 08:11:56;;;;;;;;;8.67;8.67;;;;;32.91;20.44;99891.81;4997535;28;45554;-77
2023/03/18 08:14:22;;;;;;;;;1.00;0.00;;;;;33.46;19.71;99898.50;5013078;28;45484;-76
2023/03/18 08:16:48;;;;;;;;;0.00;0.00;;;;;33.93;19.56;99893.16;4998105;28;45486;-74
2023/03/18 08:19:14;;;;;;;;;0.00;0.00;;;;;34.54;19.01;99901.03;4998415;28;45355;-72
2023/03/18 08:21:39;;;;;;;;;0.00;0.00;;;;;34.77;18.64;99907.31;4998122;28;45322;-71
2023/03/18 08:24:05;;;;;;;;;0.00;0.00;;;;;34.79;17.71;99902.63;4998008;28;45520;-71
2023/03/18 08:26:31;;;;;;;;;0.00;0.00;;;;;34.71;18.18;99907.81;4998174;28;45440;-72
2023/03/18 08:28:56;;;;;;;;;0.00;0.00;;;;;34.32;18.82;99901.00;4998423;28;45498;-71
2023/03/18 08:31:22;;;;;;;;;0.00;0.00;;;;;34.76;18.33;99904.72;4997627;28;45405;-72
2023/03/18 08:33:48;;;;;;;;;0.00;0.00;;;;;35.01;17.29;99915.28;5003261;28;45610;-72
2023/03/18 08:36:14;;;;;;;;;0.00;0.00;;;;;35.04;18.09;99909.63;5005448;28;45580;-72
2023/03/18 08:38:40;;;;;;;;;0.00;0.00;;;;;34.99;17.01;99911.00;5021034;28;45576;-72
2023/03/18 08:41:05;;;;;;;;;0.00;0.00;;;;;35.02;17.19;99900.75;5005070;28;45430;-74
2023/03/18 08:43:31;;;;;;;;;1.00;1.00;;;;;35.31;17.17;99916.47;5006189;28;45334;-73
2023/03/18 08:45:57;;;;;;;;;0.00;0.00;;;;;35.63;16.93;99904.75;5008455;28;45239;-71
2023/03/18 08:48:24;;;;;;;;;0.00;0.00;;;;;35.84;16.87;99916.53;5007856;28;45439;-72
2023/03/18 08:50:51;;;;;;;;;0.00;0.00;;;;;35.81;17.23;99905.06;5007861;28;45453;-73
2023/03/18 08:53:17;;;;;;;;;0.00;0.00;;;;;35.64;16.71;99907.34;5024125;28;45228;-70
2023/03/18 08:55:43;;;;;;;;;0.00;0.00;;;;;35.56;17.35;99900.84;5014162;28;44798;-73
2023/03/18 08:58:09;;;;;;;;;0.00;0.00;;;;;35.76;16.68;99902.75;5026698;28;45494;-73
2023/03/18 09:00:36;;;;;;;;;0.00;0.00;;;;;34.58;17.44;99901.63;5029407;28;45412;-74
2023/03/18 09:03:02;;;;;;;;;0.00;0.00;;;;;34.83;17.38;99900.53;5032774;28;45268;-73
2023/03/18 09:05:29;;;;;;;;;0.00;0.00;;;;;35.12;17.55;99898.13;5020736;28;45452;-72
2023/03/18 09:07:55;;;;;;;;;0.00;0.00;;;;;35.11;17.75;99903.69;5007535;28;45328;-73
2023/03/18 09:10:21;;;;;;;;;0.00;0.00;;;;;35.40;17.24;99906.72;4996678;28;46535;-72
2023/03/18 09:12:48;;;;;;;;;0.00;0.00;;;;;35.34;17.20;99909.94;4997609;28;45355;-73
2023/03/18 09:15:15;;;;;;;;;0.00;0.00;;;;;35.05;17.30;99905.03;4997304;28;45569;-73
2023/03/18 09:17:41;;;;;;;;;0.00;0.00;;;;;34.79;17.40;99908.06;4996905;28;45489;-73
2023/03/18 09:20:08;;;;;;;;;0.00;0.00;;;;;34.39;18.28;99919.38;4996341;28;45487;-73
2023/03/18 09:22:35;;;;;;;;;0.00;0.00;;;;;33.93;18.26;99922.13;4994844;28;45390;-73
2023/03/18 09:25:00;;;;;;;;;0.00;0.00;;;;;33.56;18.81;99922.19;4995044;28;45454;-73
2023/03/18 09:27:26;;;;;;;;;0.00;0.00;;;;;34.25;17.84;99908.78;4997379;28;45484;-72
2023/03/18 09:29:52;;;;;;;;;0.00;0.00;;;;;34.43;18.85;99920.00;4999943;28;45344;-73
2023/03/18 09:32:17;;;;;;;;;0.00;0.00;;;;;34.35;17.88;99923.31;5000548;28;45246;-73
2023/03/18 09:34:43;;;;;;;;;0.00;0.00;;;;;34.81;17.88;99935.91;5000623;28;45557;-72
2023/03/18 09:37:12;;;;;;;;;0.00;0.00;;;;;34.47;18.31;99924.19;5001192;28;45493;-72
2023/03/18 09:39:38;;;;;;;;;0.00;0.00;;;;;34.11;19.00;99936.09;5000360;28;45505;-72
2023/03/18 09:42:06;;;;;;;;;0.67;0.00;;;;;33.99;18.55;99935.19;5000116;28;45458;-72
2023/03/18 09:44:35;;;;;;;;;0.00;0.00;;;;;34.38;18.55;99942.06;5000505;28;45470;-74
2023/03/18 09:47:18;;;;;;;;;0.00;0.00;;;;;34.38;17.50;99944.78;5000256;28;45560;-73
2023/03/18 09:49:59;;;;;;;;;0.00;0.00;;;;;33.76;18.25;99947.78;5000633;28;46239;-74
2023/03/18 09:52:41;;;;;;;;;0.67;0.33;;;;;33.48;18.64;99942.63;4998840;28;45482;-73
2023/03/18 09:55:26;;;;;;;;;0.00;0.00;;;;;33.60;18.75;99938.09;4999250;28;45279;-74
2023/03/18 09:58:02;;;;;;;;;0.00;0.00;;;;;34.15;18.49;99935.75;4999502;28;45155;-74
2023/03/18 10:00:33;;;;;;;;;0.00;0.00;;;;;34.45;17.87;99937.88;4999313;28;45377;-73
2023/03/18 10:03:23;;;;;;;;;0.00;0.00;;;;;34.22;18.14;99936.13;4998610;28;45482;-72
2023/03/18 10:06:12;;;;;;;;;0.00;0.00;;;;;34.29;18.42;99944.66;4997869;28;45377;-73
2023/03/18 10:09:21;;;;;;;;;0.00;0.00;;;;;34.04;19.28;99941.09;4999715;28;45411;-72
2023/03/18 10:11:49;;;;;;;;;0.00;0.00;;;;;34.22;18.32;99947.84;4970086;28;46066;-74
2023/03/18 10:14:36;;;;;;;;;0.00;0.00;;;;;34.58;17.80;99939.59;5010081;28;45519;-71
2023/03/18 10:17:03;;;;;;;;;0.00;0.00;;;;;34.60;17.70;99943.03;5019025;28;45419;-72
2023/03/18 10:19:29;;;;;;;;;0.00;0.00;;;;;34.18;17.88;99943.66;5020010;28;45513;-72
2023/03/18 10:22:16;;;;;;;;;0.00;0.00;;;;;33.37;18.25;99945.25;5018110;28;46440;-72
2023/03/18 10:24:56;;;;;;;;;4.67;3.67;;;;;32.63;19.33;99956.03;5018628;28;45416;-71
2023/03/18 10:27:48;;;;;;;;;0.00;0.00;;;;;31.29;20.89;99956.13;5019374;28;45485;-71
2023/03/18 10:30:40;;;;;;;;;0.00;0.00;;;;;31.12;21.08;99962.63;5019801;28;45233;-71
2023/03/18 10:33:34;;;;;;;;;0.00;0.00;;;;;30.70;21.37;99965.25;5018813;28;46227;-71
2023/03/18 10:36:08;;;;;;;;;0.00;0.00;;;;;30.38;21.61;99969.97;4979979;28;45490;-71
2023/03/18 10:38:38;;;;;;;;;0.67;0.67;;;;;30.12;22.24;99972.38;4994585;28;45479;-72
2023/03/18 10:41:17;;;;;;;;;0.00;0.00;;;;;29.78;22.36;99978.91;4998450;28;45434;-72
2023/03/18 10:43:45;;;;;;;;;0.00;0.00;;;;;29.41;22.72;99970.25;5014488;28;47024;-75
2023/03/18 10:46:14;;;;;;;;;0.00;0.00;;;;;29.22;22.86;99975.81;4997918;28;45387;-74
2023/03/18 10:48:52;;;;;;;;;0.00;0.00;;;;;29.03;23.04;99993.91;4997920;28;45347;-72
2023/03/18 10:51:42;;;;;;;;;0.00;0.00;;;;;28.79;23.51;99993.44;4999363;28;45595;-71
2023/03/18 10:54:34;;;;;;;;;0.00;0.00;;;;;28.65;23.18;99992.38;4999053;28;45284;-71
2023/03/18 10:57:00;;;;;;;;;0.00;0.00;;;;;28.64;23.40;99998.69;4999281;28;45388;-71
2023/03/18 10:59:27;;;;;;;;;0.00;0.00;;;;;28.47;23.72;99998.69;4999052;28;45512;-71
2023/03/18 11:02:00;;;;;;;;;0.00;0.00;;;;;28.20;24.04;99999.19;4999285;28;45478;-71
2023/03/18 11:04:29;;;;;;;;;0.67;0.67;;;;;28.17;24.25;99997.53;4999041;28;46273;-71
2023/03/18 11:06:59;;;;;;;;;0.00;0.00;;;;;28.13;24.00;100005.81;4998550;28;45341;-71
2023/03/18 11:09:35;;;;;;;;;0.00;0.00;;;;;27.87;23.83;99999.06;4998759;28;45628;-70
2023/03/18 11:12:04;;;;;;;;;0.00;0.00;;;;;27.53;24.15;99998.06;4998029;28;45630;-70
2023/03/18 11:14:32;;;;;;;;;0.33;0.33;;;;;27.40;24.87;99984.41;4998579;28;45474;-71
2023/03/18 11:17:03;;;;;;;;;1.33;0.00;;;;;27.22;23.74;99953.06;4996933;28;45306;-70
2023/03/18 11:19:46;;;;;;;;;0.33;0.33;;;;;27.59;24.85;100000.44;4998766;28;45190;-70
2023/03/18 11:22:25;;;;;;;;;1.00;0.00;;;;;27.66;23.56;99982.25;4998503;28;45416;-72
2023/03/18 11:25:15;;;;;;;;;0.00;0.00;;;;;27.48;24.00;99990.25;4997082;28;46531;-71
2023/03/18 11:27:44;;;;;;;;;0.00;0.00;;;;;27.70;23.38;99991.88;4994888;28;45466;-71
2023/03/18 11:30:28;;;;;;;;;1.00;0.00;;;;;27.51;24.15;99982.03;4998769;28;45387;-71
2023/03/18 11:33:14;;;;;;;;;0.33;0.00;;;;;27.64;25.23;99994.88;4995737;28;45593;-72
2023/03/18 11:35:42;;;;;;;;;1.00;1.00;;;;;27.51;24.59;99997.28;4996384;28;47977;-72
2023/03/18 11:38:18;;;;;;;;;0.00;0.00;;;;;26.97;24.69;99989.09;4995690;28;45276;-71
2023/03/18 11:40:45;;;;;;;;;1.33;1.00;;;;;26.98;25.11;99996.19;4997967;28;45904;-70